createdAt,value
2017-12-22T00:00:12.735Z,3.85
2017-12-22T00:01:12.783Z,3.84
2017-12-22T00:02:12.713Z,3.84
2017-12-22T00:03:12.677Z,3.82
2017-12-22T00:04:12.691Z,3.85
2017-12-22T00:05:12.671Z,3.84
2017-12-22T00:06:13.200Z,3.79
2017-12-22T00:07:12.652Z,3.84
2017-12-22T00:08:12.903Z,3.79
2017-12-22T00:09:12.601Z,3.79
2017-12-22T00:10:13.048Z,3.79
2017-12-22T00:11:12.578Z,3.74
2017-12-22T00:12:13.087Z,3.79
2017-12-22T00:13:12.833Z,3.67
2017-12-22T00:14:12.793Z,3.67
2017-12-22T00:15:12.494Z,3.67
2017-12-22T00:16:12.480Z,3.64
2017-12-22T00:17:12.463Z,3.6
2017-12-22T00:18:12.486Z,3.61
2017-12-22T00:19:12.722Z,3.71
2017-12-22T00:20:12.711Z,3.58
2017-12-22T00:21:12.688Z,3.61
2017-12-22T00:22:12.388Z,3.63
2017-12-22T00:23:12.662Z,3.69
2017-12-22T00:24:12.416Z,3.57
2017-12-22T00:25:12.615Z,3.6
2017-12-22T00:26:12.325Z,3.57
2017-12-22T00:27:12.580Z,3.64
2017-12-22T00:28:12.296Z,3.53
2017-12-22T00:29:12.553Z,3.61
2017-12-22T00:30:12.267Z,3.56
2017-12-22T00:31:12.521Z,3.61
2017-12-22T00:32:12.511Z,3.57
2017-12-22T00:33:12.505Z,3.57
2017-12-22T00:34:12.474Z,3.63
2017-12-22T00:35:12.483Z,3.56
2017-12-22T00:36:12.171Z,3.61
2017-12-22T00:37:12.430Z,3.64
2017-12-22T00:38:12.140Z,3.57
2017-12-22T00:39:12.126Z,3.64
2017-12-22T00:40:12.112Z,3.6
2017-12-22T00:41:12.372Z,3.57
2017-12-22T00:42:12.352Z,3.54
2017-12-22T00:43:12.386Z,3.54
2017-12-22T00:44:12.321Z,3.51
2017-12-22T00:45:12.311Z,3.57
2017-12-22T00:46:12.017Z,3.57
2017-12-22T00:47:12.547Z,3.58
2017-12-22T00:48:12.259Z,3.54
2017-12-22T00:49:12.243Z,3.63
2017-12-22T00:50:12.518Z,3.49
2017-12-22T00:51:11.941Z,3.6
2017-12-22T00:52:12.204Z,3.6
2017-12-22T00:53:11.912Z,3.51
2017-12-22T00:54:12.449Z,3.49
2017-12-22T00:55:12.161Z,3.49
2017-12-22T00:56:11.859Z,3.54
2017-12-22T00:57:12.391Z,3.51
2017-12-22T00:58:11.833Z,3.53
2017-12-22T00:59:11.816Z,3.53
2017-12-22T01:00:12.341Z,3.57
2017-12-22T01:01:11.792Z,3.54
2017-12-22T01:02:12.104Z,3.51
2017-12-22T01:03:12.026Z,3.57
2017-12-22T01:04:11.736Z,3.49
2017-12-22T01:05:11.994Z,3.49
2017-12-22T01:06:12.249Z,3.48
2017-12-22T01:07:11.712Z,3.51
2017-12-22T01:08:11.685Z,3.45
2017-12-22T01:09:11.931Z,3.51
2017-12-22T01:10:11.915Z,3.53
2017-12-22T01:11:12.171Z,3.53
2017-12-22T01:12:11.612Z,3.45
2017-12-22T01:13:11.880Z,3.48
2017-12-22T01:14:11.577Z,3.39
2017-12-22T01:15:11.566Z,3.46
2017-12-22T01:16:11.833Z,3.42
2017-12-22T01:17:12.076Z,3.48
2017-12-22T01:18:11.521Z,3.45
2017-12-22T01:19:11.506Z,3.49
2017-12-22T01:20:11.488Z,3.49
2017-12-22T01:21:11.493Z,3.45
2017-12-22T01:22:11.735Z,3.43
2017-12-22T01:23:11.717Z,3.49
2017-12-22T01:24:11.699Z,3.49
2017-12-22T01:25:11.412Z,3.51
2017-12-22T01:26:11.670Z,3.51
2017-12-22T01:27:11.380Z,3.48
2017-12-22T01:28:11.369Z,3.49
2017-12-22T01:29:11.347Z,3.49
2017-12-22T01:30:11.883Z,3.57
2017-12-22T01:31:11.589Z,3.49
2017-12-22T01:32:11.302Z,3.56
2017-12-22T01:33:11.555Z,3.56
2017-12-22T01:34:11.547Z,3.57
2017-12-22T01:35:11.276Z,3.53
2017-12-22T01:36:11.240Z,3.54
2017-12-22T01:37:11.224Z,3.53
2017-12-22T01:38:11.488Z,3.53
2017-12-22T01:39:11.195Z,3.58
2017-12-22T01:40:11.201Z,3.46
2017-12-22T01:41:11.168Z,3.48
2017-12-22T01:42:11.696Z,3.46
2017-12-22T01:43:11.129Z,3.54
2017-12-22T01:44:11.112Z,3.46
2017-12-22T01:45:11.371Z,3.45
2017-12-22T01:46:11.638Z,3.45
2017-12-22T01:47:11.612Z,3.43
2017-12-22T01:48:11.053Z,3.45
2017-12-22T01:49:11.035Z,3.48
2017-12-22T01:50:11.300Z,3.46
2017-12-22T01:51:11.286Z,3.48
2017-12-22T01:52:11.260Z,3.48
2017-12-22T01:53:11.249Z,3.43
2017-12-22T01:54:11.510Z,3.54
2017-12-22T01:55:11.221Z,3.53
2017-12-22T01:56:11.199Z,3.53
2017-12-22T01:57:11.205Z,3.53
2017-12-22T01:58:11.188Z,3.61
2017-12-22T01:59:10.898Z,3.57
2017-12-22T02:00:10.865Z,3.48
2017-12-22T02:01:10.848Z,3.48
2017-12-22T02:02:11.121Z,3.51
2017-12-22T02:03:11.114Z,3.45
2017-12-22T02:04:11.072Z,3.43
2017-12-22T02:05:10.785Z,3.45
2017-12-22T02:06:11.040Z,3.51
2017-12-22T02:07:11.027Z,3.48
2017-12-22T02:08:10.739Z,3.48
2017-12-22T02:09:11.004Z,3.49
2017-12-22T02:10:11.044Z,3.51
2017-12-22T02:11:10.692Z,3.51
2017-12-22T02:12:11.221Z,3.49
2017-12-22T02:13:10.932Z,3.51
2017-12-22T02:14:10.644Z,3.48
2017-12-22T02:15:10.901Z,3.51
2017-12-22T02:16:10.616Z,3.42
2017-12-22T02:17:10.873Z,3.49
2017-12-22T02:18:10.582Z,3.46
2017-12-22T02:19:10.843Z,3.45
2017-12-22T02:20:10.550Z,3.42
2017-12-22T02:21:10.809Z,3.51
2017-12-22T02:22:10.790Z,3.45
2017-12-22T02:23:10.774Z,3.45
2017-12-22T02:24:10.810Z,3.42
2017-12-22T02:25:10.474Z,3.39
2017-12-22T02:26:10.757Z,3.3
2017-12-22T02:27:10.443Z,3.35
2017-12-22T02:28:10.700Z,3.42
2017-12-22T02:29:10.680Z,3.34
2017-12-22T02:30:10.676Z,3.32
2017-12-22T02:31:10.381Z,3.35
2017-12-22T02:32:10.655Z,3.32
2017-12-22T02:33:10.628Z,3.35
2017-12-22T02:34:10.886Z,3.32
2017-12-22T02:35:10.593Z,3.3
2017-12-22T02:36:10.571Z,3.35
2017-12-22T02:37:10.847Z,3.45
2017-12-22T02:38:10.544Z,3.35
2017-12-22T02:39:10.264Z,3.42
2017-12-22T02:40:10.238Z,3.29
2017-12-22T02:41:10.220Z,3.35
2017-12-22T02:42:10.485Z,3.27
2017-12-22T02:43:10.192Z,3.23
2017-12-22T02:44:10.729Z,3.2
2017-12-22T02:45:10.431Z,3.21
2017-12-22T02:46:10.416Z,3.34
2017-12-22T02:47:10.438Z,3.26
2017-12-22T02:48:10.113Z,3.24
2017-12-22T02:49:10.098Z,3.29
2017-12-22T02:50:10.377Z,3.26
2017-12-22T02:51:10.065Z,3.34
2017-12-22T02:52:10.605Z,3.23
2017-12-22T02:53:10.315Z,3.3
2017-12-22T02:54:10.320Z,3.3
2017-12-22T02:55:10.276Z,3.32
2017-12-22T02:56:10.270Z,3.27
2017-12-22T02:57:10.259Z,3.39
2017-12-22T02:58:09.992Z,3.35
2017-12-22T02:59:10.210Z,3.35
2017-12-22T03:00:10.466Z,3.29
2017-12-22T03:01:10.193Z,3.32
2017-12-22T03:02:09.917Z,3.21
2017-12-22T03:03:09.878Z,3.29
2017-12-22T03:04:09.858Z,3.32
2017-12-22T03:05:10.397Z,3.37
2017-12-22T03:06:10.118Z,3.32
2017-12-22T03:07:10.088Z,3.23
2017-12-22T03:08:10.123Z,3.27
2017-12-22T03:09:09.796Z,3.34
2017-12-22T03:10:10.045Z,3.35
2017-12-22T03:11:10.021Z,3.29
2017-12-22T03:12:10.005Z,3.27
2017-12-22T03:13:09.718Z,3.39
2017-12-22T03:14:09.994Z,3.42
2017-12-22T03:15:09.957Z,3.39
2017-12-22T03:16:10.229Z,3.37
2017-12-22T03:17:09.926Z,3.37
2017-12-22T03:18:10.188Z,3.3
2017-12-22T03:19:09.891Z,3.37
2017-12-22T03:20:09.881Z,3.45
2017-12-22T03:21:09.864Z,3.42
2017-12-22T03:22:09.579Z,3.43
2017-12-22T03:23:09.836Z,3.43
2017-12-22T03:24:10.093Z,3.48
2017-12-22T03:25:09.546Z,3.45
2017-12-22T03:26:09.785Z,3.48
2017-12-22T03:27:09.771Z,3.42
2017-12-22T03:28:09.830Z,3.42
2017-12-22T03:29:09.466Z,3.42
2017-12-22T03:30:09.728Z,3.48
2017-12-22T03:31:09.993Z,3.46
2017-12-22T03:32:09.692Z,3.35
2017-12-22T03:33:09.405Z,3.56
2017-12-22T03:34:09.663Z,3.53
2017-12-22T03:35:09.915Z,3.45
2017-12-22T03:36:09.359Z,3.46
2017-12-22T03:37:09.615Z,3.48
2017-12-22T03:38:09.346Z,3.51
2017-12-22T03:39:09.308Z,3.49
2017-12-22T03:40:09.303Z,3.57
2017-12-22T03:41:09.558Z,3.45
2017-12-22T03:42:09.263Z,3.54
2017-12-22T03:43:09.249Z,3.53
2017-12-22T03:44:09.230Z,3.54
2017-12-22T03:45:09.216Z,3.53
2017-12-22T03:46:09.750Z,3.57
2017-12-22T03:47:09.198Z,3.56
2017-12-22T03:48:09.448Z,3.54
2017-12-22T03:49:09.424Z,3.56
2017-12-22T03:50:09.429Z,3.56
2017-12-22T03:51:09.723Z,3.63
2017-12-22T03:52:09.404Z,3.67
2017-12-22T03:53:09.366Z,3.61
2017-12-22T03:54:09.349Z,3.56
2017-12-22T03:55:09.609Z,3.63
2017-12-22T03:56:09.054Z,3.61
2017-12-22T03:57:09.030Z,3.57
2017-12-22T03:58:09.026Z,3.64
2017-12-22T03:59:09.276Z,3.57
2017-12-22T04:00:08.980Z,3.72
2017-12-22T04:01:09.240Z,3.72
2017-12-22T04:02:09.495Z,3.58
2017-12-22T04:03:09.230Z,3.67
2017-12-22T04:04:09.212Z,3.61
2017-12-22T04:05:09.191Z,3.64
2017-12-22T04:06:08.904Z,3.66
2017-12-22T04:07:08.868Z,3.64
2017-12-22T04:08:09.404Z,3.69
2017-12-22T04:09:08.838Z,3.76
2017-12-22T04:10:08.825Z,3.67
2017-12-22T04:11:09.079Z,3.69
2017-12-22T04:12:08.794Z,3.72
2017-12-22T04:13:08.776Z,3.72
2017-12-22T04:14:09.037Z,3.67
2017-12-22T04:15:09.014Z,3.75
2017-12-22T04:16:09.000Z,3.79
2017-12-22T04:17:09.005Z,3.66
2017-12-22T04:18:08.971Z,3.72
2017-12-22T04:19:08.980Z,3.75
2017-12-22T04:20:08.670Z,3.74
2017-12-22T04:21:09.198Z,3.76
2017-12-22T04:22:08.909Z,3.64
2017-12-22T04:23:08.637Z,3.74
2017-12-22T04:24:09.163Z,3.76
2017-12-22T04:25:09.128Z,3.76
2017-12-22T04:26:08.851Z,3.81
2017-12-22T04:27:08.838Z,3.85
2017-12-22T04:28:08.829Z,3.84
2017-12-22T04:29:08.811Z,3.78
2017-12-22T04:30:08.539Z,3.82
2017-12-22T04:31:08.772Z,3.86
2017-12-22T04:32:09.028Z,3.79
2017-12-22T04:33:08.464Z,3.86
2017-12-22T04:34:08.745Z,3.79
2017-12-22T04:35:08.708Z,3.86
2017-12-22T04:36:08.436Z,3.82
2017-12-22T04:37:08.713Z,3.84
2017-12-22T04:38:08.388Z,3.82
2017-12-22T04:39:08.371Z,3.86
2017-12-22T04:40:08.928Z,3.9
2017-12-22T04:41:08.363Z,3.86
2017-12-22T04:42:08.597Z,3.84
2017-12-22T04:43:08.853Z,3.86
2017-12-22T04:44:08.567Z,3.79
2017-12-22T04:45:08.563Z,3.84
2017-12-22T04:46:08.270Z,3.86
2017-12-22T04:47:08.554Z,3.79
2017-12-22T04:48:08.783Z,3.81
2017-12-22T04:49:08.521Z,3.85
2017-12-22T04:50:08.756Z,3.81
2017-12-22T04:51:08.486Z,3.76
2017-12-22T04:52:08.173Z,3.76
2017-12-22T04:53:08.466Z,3.74
2017-12-22T04:54:08.138Z,3.82
2017-12-22T04:55:08.189Z,3.82
2017-12-22T04:56:08.702Z,3.82
2017-12-22T04:57:08.638Z,3.84
2017-12-22T04:58:08.080Z,3.86
2017-12-22T04:59:08.087Z,3.79
2017-12-22T05:00:08.596Z,3.76
2017-12-22T05:01:08.313Z,3.84
2017-12-22T05:02:08.017Z,3.84
2017-12-22T05:03:08.273Z,3.79
2017-12-22T05:04:08.260Z,3.84
2017-12-22T05:05:08.245Z,3.78
2017-12-22T05:06:07.976Z,3.76
2017-12-22T05:07:07.939Z,3.76
2017-12-22T05:08:08.199Z,3.76
2017-12-22T05:09:08.184Z,3.72
2017-12-22T05:10:07.895Z,3.67
2017-12-22T05:11:08.148Z,3.69
2017-12-22T05:12:07.867Z,3.66
2017-12-22T05:13:08.133Z,3.66
2017-12-22T05:14:07.833Z,3.64
2017-12-22T05:15:07.813Z,3.75
2017-12-22T05:16:07.798Z,3.66
2017-12-22T05:17:08.074Z,3.74
2017-12-22T05:18:07.771Z,3.72
2017-12-22T05:19:08.028Z,3.67
2017-12-22T05:20:07.737Z,3.64
2017-12-22T05:21:07.994Z,3.67
2017-12-22T05:22:08.249Z,3.74
2017-12-22T05:23:07.969Z,3.79
2017-12-22T05:24:07.673Z,3.71
2017-12-22T05:25:07.934Z,3.75
2017-12-22T05:26:08.184Z,3.82
2017-12-22T05:27:07.629Z,3.74
2017-12-22T05:28:07.885Z,3.74
2017-12-22T05:29:07.893Z,3.75
2017-12-22T05:30:07.862Z,3.76
2017-12-22T05:31:07.841Z,3.78
2017-12-22T05:32:07.552Z,3.78
2017-12-22T05:33:07.551Z,3.76
2017-12-22T05:34:07.793Z,3.76
2017-12-22T05:35:07.777Z,3.79
2017-12-22T05:36:07.502Z,3.76
2017-12-22T05:37:08.016Z,3.74
2017-12-22T05:38:07.478Z,3.82
2017-12-22T05:39:07.443Z,3.81
2017-12-22T05:40:07.698Z,3.79
2017-12-22T05:41:07.410Z,3.78
2017-12-22T05:42:07.670Z,3.71
2017-12-22T05:43:07.660Z,3.75
2017-12-22T05:44:07.914Z,3.74
2017-12-22T05:45:07.364Z,3.81
2017-12-22T05:46:07.370Z,3.76
2017-12-22T05:47:07.319Z,3.79
2017-12-22T05:48:07.581Z,3.74
2017-12-22T05:49:07.577Z,3.75
2017-12-22T05:50:07.547Z,3.76
2017-12-22T05:51:07.529Z,3.82
2017-12-22T05:52:07.239Z,3.84
2017-12-22T05:53:07.238Z,3.86
2017-12-22T05:54:07.245Z,3.81
2017-12-22T05:55:07.481Z,3.82
2017-12-22T05:56:07.460Z,3.78
2017-12-22T05:57:07.162Z,3.84
2017-12-22T05:58:07.700Z,3.85
2017-12-22T05:59:07.418Z,3.84
2017-12-22T06:00:07.116Z,3.89
2017-12-22T06:01:07.372Z,3.92
2017-12-22T06:02:07.359Z,3.86
2017-12-22T06:03:07.364Z,3.82
2017-12-22T06:04:07.053Z,3.89
2017-12-22T06:05:07.041Z,3.86
2017-12-22T06:06:07.295Z,3.82
2017-12-22T06:07:07.012Z,3.92
2017-12-22T06:08:06.994Z,3.9
2017-12-22T06:09:06.996Z,3.99
2017-12-22T06:10:07.232Z,3.92
2017-12-22T06:11:07.217Z,3.94
2017-12-22T06:12:07.515Z,3.96
2017-12-22T06:13:06.923Z,3.92
2017-12-22T06:14:07.445Z,3.97
2017-12-22T06:15:06.885Z,3.92
2017-12-22T06:16:07.420Z,3.97
2017-12-22T06:17:07.129Z,3.96
2017-12-22T06:18:07.383Z,3.94
2017-12-22T06:19:06.821Z,3.96
2017-12-22T06:20:07.084Z,3.89
2017-12-22T06:21:06.811Z,3.89
2017-12-22T06:22:07.051Z,3.93
2017-12-22T06:23:06.763Z,3.82
2017-12-22T06:24:07.293Z,3.84
2017-12-22T06:25:06.741Z,3.93
2017-12-22T06:26:07.303Z,3.94
2017-12-22T06:27:06.990Z,3.92
2017-12-22T06:28:06.957Z,3.93
2017-12-22T06:29:07.304Z,3.93
2017-12-22T06:30:06.655Z,3.86
2017-12-22T06:31:06.913Z,4.03
2017-12-22T06:32:07.170Z,3.94
2017-12-22T06:33:06.885Z,3.89
2017-12-22T06:34:07.145Z,3.89
2017-12-22T06:35:06.856Z,3.96
2017-12-22T06:36:06.575Z,4.02
2017-12-22T06:37:07.094Z,3.96
2017-12-22T06:38:06.817Z,3.97
2017-12-22T06:39:06.790Z,4.02
2017-12-22T06:40:06.499Z,3.99
2017-12-22T06:41:06.781Z,4.03
2017-12-22T06:42:06.472Z,3.93
2017-12-22T06:43:07.016Z,3.96
2017-12-22T06:44:06.710Z,3.97
2017-12-22T06:45:06.705Z,4
2017-12-22T06:46:06.428Z,4.02
2017-12-22T06:47:06.668Z,3.99
2017-12-22T06:48:06.399Z,3.99
2017-12-22T06:49:06.363Z,4.04
2017-12-22T06:50:06.631Z,4.02
2017-12-22T06:51:06.331Z,4.11
2017-12-22T06:52:06.594Z,3.96
2017-12-22T06:53:06.303Z,3.99
2017-12-22T06:54:06.567Z,3.96
2017-12-22T06:55:06.547Z,3.92
2017-12-22T06:56:06.252Z,4.02
2017-12-22T06:57:06.511Z,3.97
2017-12-22T06:58:06.226Z,3.97
2017-12-22T06:59:06.203Z,3.96
2017-12-22T07:00:06.484Z,3.96
2017-12-22T07:01:06.176Z,3.92
2017-12-22T07:02:06.432Z,4.04
2017-12-22T07:03:06.429Z,4.07
2017-12-22T07:04:06.408Z,4.08
2017-12-22T07:05:06.119Z,4.07
2017-12-22T07:06:06.108Z,4.04
2017-12-22T07:07:06.091Z,4.07
2017-12-22T07:08:06.071Z,4.04
2017-12-22T07:09:06.055Z,4.1
2017-12-22T07:10:06.038Z,4.08
2017-12-22T07:11:06.300Z,4.1
2017-12-22T07:12:06.557Z,4.04
2017-12-22T07:13:06.266Z,4.11
2017-12-22T07:14:06.524Z,4.12
2017-12-22T07:15:06.241Z,4.1
2017-12-22T07:16:06.228Z,4.11
2017-12-22T07:17:05.933Z,4.1
2017-12-22T07:18:06.197Z,4.1
2017-12-22T07:19:06.452Z,4.14
2017-12-22T07:20:06.185Z,4.15
2017-12-22T07:21:06.150Z,4.15
2017-12-22T07:22:06.135Z,4.14
2017-12-22T07:23:06.386Z,4.12
2017-12-22T07:24:05.853Z,4.14
2017-12-22T07:25:06.083Z,4.12
2017-12-22T07:26:06.082Z,4.22
2017-12-22T07:27:06.329Z,4.15
2017-12-22T07:28:06.310Z,4.17
2017-12-22T07:29:06.037Z,4.15
2017-12-22T07:30:05.741Z,4.28
2017-12-22T07:31:05.995Z,4.21
2017-12-22T07:32:05.708Z,4.22
2017-12-22T07:33:05.693Z,4.21
2017-12-22T07:34:05.952Z,4.29
2017-12-22T07:35:05.935Z,4.2
2017-12-22T07:36:05.665Z,4.33
2017-12-22T07:37:05.643Z,4.21
2017-12-22T07:38:05.890Z,4.29
2017-12-22T07:39:05.897Z,4.15
2017-12-22T07:40:06.130Z,4.29
2017-12-22T07:41:05.845Z,4.28
2017-12-22T07:42:05.559Z,4.3
2017-12-22T07:43:05.542Z,4.28
2017-12-22T07:44:05.527Z,4.29
2017-12-22T07:45:06.061Z,4.33
2017-12-22T07:46:05.771Z,4.33
2017-12-22T07:47:05.753Z,4.29
2017-12-22T07:48:05.739Z,4.36
2017-12-22T07:49:05.744Z,4.35
2017-12-22T07:50:05.990Z,4.33
2017-12-22T07:51:05.691Z,4.29
2017-12-22T07:52:05.428Z,4.29
2017-12-22T07:53:05.674Z,4.3
2017-12-22T07:54:05.377Z,4.4
2017-12-22T07:55:05.365Z,4.35
2017-12-22T07:56:05.616Z,4.38
2017-12-22T07:57:05.349Z,4.4
2017-12-22T07:58:05.589Z,4.4
2017-12-22T07:59:05.301Z,4.42
2017-12-22T08:00:05.564Z,4.39
2017-12-22T08:01:05.266Z,4.47
2017-12-22T08:02:05.528Z,4.47
2017-12-22T08:03:05.790Z,4.47
2017-12-22T08:04:05.226Z,4.46
2017-12-22T08:05:05.768Z,4.46
2017-12-22T08:06:05.467Z,4.47
2017-12-22T08:07:05.523Z,4.46
2017-12-22T08:08:05.448Z,4.48
2017-12-22T08:09:05.157Z,4.51
2017-12-22T08:10:05.407Z,4.51
2017-12-22T08:11:05.119Z,4.51
2017-12-22T08:12:05.374Z,4.44
2017-12-22T08:13:05.377Z,4.54
2017-12-22T08:14:05.350Z,4.51
2017-12-22T08:15:05.332Z,4.57
2017-12-22T08:16:05.321Z,4.53
2017-12-22T08:17:05.574Z,4.58
2017-12-22T08:18:05.493Z,4.53
2017-12-22T08:19:05.283Z,4.53
2017-12-22T08:20:05.267Z,4.53
2017-12-22T08:21:05.571Z,4.48
2017-12-22T08:22:05.230Z,4.51
2017-12-22T08:23:05.212Z,4.56
2017-12-22T08:24:05.202Z,4.48
2017-12-22T08:25:04.932Z,4.57
2017-12-22T08:26:05.169Z,4.51
2017-12-22T08:27:04.898Z,4.61
2017-12-22T08:28:05.137Z,4.61
2017-12-22T08:29:04.862Z,4.58
2017-12-22T08:30:05.109Z,4.61
2017-12-22T08:31:05.094Z,4.58
2017-12-22T08:32:05.078Z,4.6
2017-12-22T08:33:05.062Z,4.61
2017-12-22T08:34:05.326Z,4.68
2017-12-22T08:35:04.767Z,4.65
2017-12-22T08:36:04.746Z,4.69
2017-12-22T08:37:04.740Z,4.69
2017-12-22T08:38:05.265Z,4.74
2017-12-22T08:39:04.980Z,4.68
2017-12-22T08:40:04.963Z,4.84
2017-12-22T08:41:04.946Z,4.88
2017-12-22T08:42:04.663Z,4.85
2017-12-22T08:43:04.646Z,4.78
2017-12-22T08:44:04.634Z,4.9
2017-12-22T08:45:04.891Z,4.91
2017-12-22T08:46:04.875Z,4.92
2017-12-22T08:47:04.604Z,4.92
2017-12-22T08:48:04.845Z,5.02
2017-12-22T08:49:04.832Z,4.94
2017-12-22T08:50:04.558Z,4.92
2017-12-22T08:51:04.799Z,4.94
2017-12-22T08:52:04.782Z,4.97
2017-12-22T08:53:04.805Z,5.03
2017-12-22T08:54:04.762Z,4.95
2017-12-22T08:55:04.497Z,4.95
2017-12-22T08:56:04.729Z,4.94
2017-12-22T08:57:04.714Z,4.94
2017-12-22T08:58:04.434Z,4.92
2017-12-22T08:59:04.687Z,4.9
2017-12-22T09:00:04.942Z,4.91
2017-12-22T09:01:04.931Z,4.92
2017-12-22T09:02:04.371Z,4.94
2017-12-22T09:03:04.649Z,4.92
2017-12-22T09:04:04.614Z,4.91
2017-12-22T09:05:04.327Z,4.85
2017-12-22T09:06:04.313Z,4.85
2017-12-22T09:07:04.295Z,4.9
2017-12-22T09:08:04.285Z,4.78
2017-12-22T09:09:04.540Z,4.88
2017-12-22T09:10:04.255Z,4.79
2017-12-22T09:11:04.247Z,4.97
2017-12-22T09:12:04.222Z,4.95
2017-12-22T09:13:04.208Z,4.9
2017-12-22T09:14:04.745Z,4.9
2017-12-22T09:15:04.179Z,4.92
2017-12-22T09:16:04.712Z,4.92
2017-12-22T09:17:04.758Z,4.94
2017-12-22T09:18:04.415Z,4.92
2017-12-22T09:19:04.468Z,5
2017-12-22T09:20:04.392Z,5.02
2017-12-22T09:21:04.640Z,5.02
2017-12-22T09:22:04.626Z,5.02
2017-12-22T09:23:04.339Z,5.02
2017-12-22T09:24:04.352Z,5
2017-12-22T09:25:04.627Z,5.1
2017-12-22T09:26:04.018Z,5.12
2017-12-22T09:27:04.562Z,5.08
2017-12-22T09:28:03.990Z,5.12
2017-12-22T09:29:04.264Z,5.09
2017-12-22T09:30:04.248Z,5.13
2017-12-22T09:31:04.226Z,5.1
2017-12-22T09:32:04.207Z,5.08
2017-12-22T09:33:03.925Z,5.09
2017-12-22T09:34:04.450Z,5.12
2017-12-22T09:35:04.174Z,5.15
2017-12-22T09:36:04.151Z,5.16
2017-12-22T09:37:03.864Z,5.12
2017-12-22T09:38:04.424Z,5.1
2017-12-22T09:39:04.108Z,5.16
2017-12-22T09:40:03.821Z,5.18
2017-12-22T09:41:04.428Z,5.18
2017-12-22T09:42:03.790Z,5.16
2017-12-22T09:43:04.075Z,5.2
2017-12-22T09:44:04.307Z,5.16
2017-12-22T09:45:03.784Z,5.15
2017-12-22T09:46:03.731Z,5.18
2017-12-22T09:47:04.276Z,5.24
2017-12-22T09:48:03.997Z,5.2
2017-12-22T09:49:04.239Z,5.15
2017-12-22T09:50:03.681Z,5.12
2017-12-22T09:51:04.390Z,5.26
2017-12-22T09:52:03.922Z,5.16
2017-12-22T09:53:03.906Z,5.23
2017-12-22T09:54:04.182Z,5.23
2017-12-22T09:55:04.160Z,5.15
2017-12-22T09:56:03.885Z,5.1
2017-12-22T09:57:03.577Z,5.24
2017-12-22T09:58:03.847Z,5.18
2017-12-22T09:59:03.560Z,5.26
2017-12-22T10:00:03.807Z,5.16
2017-12-22T10:01:03.518Z,5.27
2017-12-22T10:02:03.781Z,5.28
2017-12-22T10:03:03.778Z,5.21
2017-12-22T10:04:03.752Z,5.24
2017-12-22T10:05:03.467Z,5.24
2017-12-22T10:06:03.724Z,5.23
2017-12-22T10:07:03.438Z,5.21
2017-12-22T10:08:03.422Z,5.16
2017-12-22T10:09:03.683Z,5.15
2017-12-22T10:10:03.667Z,5.21
2017-12-22T10:11:03.652Z,5.15
2017-12-22T10:12:03.366Z,5.2
2017-12-22T10:13:03.896Z,5.24
2017-12-22T10:14:03.606Z,5.23
2017-12-22T10:15:03.592Z,5.23
2017-12-22T10:16:03.322Z,5.23
2017-12-22T10:17:03.586Z,5.16
2017-12-22T10:18:03.837Z,5.3
2017-12-22T10:19:03.602Z,5.26
2017-12-22T10:20:03.250Z,5.24
2017-12-22T10:21:03.512Z,5.23
2017-12-22T10:22:03.234Z,5.26
2017-12-22T10:23:03.210Z,5.16
2017-12-22T10:24:03.467Z,5.36
2017-12-22T10:25:03.180Z,5.37
2017-12-22T10:26:03.455Z,5.39
2017-12-22T10:27:03.428Z,5.36
2017-12-22T10:28:03.680Z,5.33
2017-12-22T10:29:03.409Z,5.41
2017-12-22T10:30:03.383Z,5.37
2017-12-22T10:31:03.363Z,5.33
2017-12-22T10:32:03.083Z,5.31
2017-12-22T10:33:03.340Z,5.34
2017-12-22T10:34:03.346Z,5.37
2017-12-22T10:35:03.037Z,5.3
2017-12-22T10:36:03.298Z,5.26
2017-12-22T10:37:03.282Z,5.23
2017-12-22T10:38:03.271Z,5.33
2017-12-22T10:39:03.258Z,5.33
2017-12-22T10:40:03.238Z,5.33
2017-12-22T10:41:03.235Z,5.31
2017-12-22T10:42:02.938Z,5.2
2017-12-22T10:43:03.197Z,5.33
2017-12-22T10:44:02.920Z,5.39
2017-12-22T10:45:03.171Z,5.33
2017-12-22T10:46:02.879Z,5.41
2017-12-22T10:47:02.944Z,5.39
2017-12-22T10:48:03.414Z,5.44
2017-12-22T10:49:02.843Z,5.37
2017-12-22T10:50:02.826Z,5.42
2017-12-22T10:51:02.820Z,5.41
2017-12-22T10:52:03.070Z,5.39
2017-12-22T10:53:03.056Z,5.44
2017-12-22T10:54:02.767Z,5.41
2017-12-22T10:55:03.303Z,5.37
2017-12-22T10:56:03.015Z,5.39
2017-12-22T10:57:03.000Z,5.42
2017-12-22T10:58:02.984Z,5.51
2017-12-22T10:59:02.901Z,5.49
2017-12-22T11:00:02.959Z,5.46
2017-12-22T11:01:02.955Z,5.39
2017-12-22T11:02:02.947Z,5.44
2017-12-22T11:03:03.188Z,5.52
2017-12-22T11:04:02.908Z,5.45
2017-12-22T11:05:02.615Z,5.46
2017-12-22T11:06:02.881Z,5.51
2017-12-22T11:07:02.861Z,5.51
2017-12-22T11:08:03.116Z,5.55
2017-12-22T11:09:02.556Z,5.66
2017-12-22T11:10:02.872Z,5.62
2017-12-22T11:11:03.074Z,5.64
2017-12-22T11:12:02.518Z,5.69
2017-12-22T11:13:02.502Z,5.64
2017-12-22T11:14:02.759Z,5.69
2017-12-22T11:15:02.474Z,5.7
2017-12-22T11:16:02.460Z,5.75
2017-12-22T11:17:02.443Z,5.69
2017-12-22T11:18:02.432Z,5.69
2017-12-22T11:19:02.472Z,5.77
2017-12-22T11:20:02.422Z,5.72
2017-12-22T11:21:02.388Z,5.85
2017-12-22T11:22:02.949Z,5.75
2017-12-22T11:23:02.904Z,5.84
2017-12-22T11:24:02.914Z,5.84
2017-12-22T11:25:02.352Z,5.85
2017-12-22T11:26:02.319Z,5.92
2017-12-22T11:27:02.605Z,5.96
2017-12-22T11:28:02.567Z,5.99
2017-12-22T11:29:02.553Z,5.91
2017-12-22T11:30:02.540Z,5.89
2017-12-22T11:31:02.520Z,5.87
2017-12-22T11:32:02.800Z,5.95
2017-12-22T11:33:02.500Z,6.02
2017-12-22T11:34:02.490Z,5.96
2017-12-22T11:35:02.741Z,5.92
2017-12-22T11:36:02.456Z,5.85
2017-12-22T11:37:02.172Z,5.98
2017-12-22T11:38:02.725Z,5.99
2017-12-22T11:39:02.140Z,5.98
2017-12-22T11:40:02.399Z,5.98
2017-12-22T11:41:02.384Z,5.96
2017-12-22T11:42:02.371Z,6.07
2017-12-22T11:43:02.086Z,6.03
2017-12-22T11:44:02.440Z,6.06
2017-12-22T11:45:02.063Z,6.05
2017-12-22T11:46:02.331Z,6.07
2017-12-22T11:47:02.304Z,6.05
2017-12-22T11:48:02.295Z,6.05
2017-12-22T11:49:02.281Z,6.13
2017-12-22T11:50:01.997Z,6.18
2017-12-22T11:51:02.258Z,6.1
2017-12-22T11:52:02.279Z,6.18
2017-12-22T11:53:01.954Z,6.17
2017-12-22T11:54:02.214Z,6.13
2017-12-22T11:55:02.203Z,6.1
2017-12-22T11:56:02.455Z,6.17
2017-12-22T11:57:01.899Z,6.09
2017-12-22T11:58:02.438Z,6.17
2017-12-22T11:59:01.889Z,6.17
2017-12-22T12:00:01.860Z,6.06
2017-12-22T12:01:01.885Z,6.02
2017-12-22T12:02:01.835Z,5.95
2017-12-22T12:03:02.103Z,5.98
2017-12-22T12:04:01.807Z,5.91
2017-12-22T12:05:01.832Z,5.92
2017-12-22T12:06:01.779Z,5.82
2017-12-22T12:07:01.768Z,5.89
2017-12-22T12:08:02.022Z,5.87
2017-12-22T12:09:02.279Z,5.85
2017-12-22T12:10:02.010Z,5.8
2017-12-22T12:11:01.715Z,5.75
2017-12-22T12:12:02.239Z,5.8
2017-12-22T12:13:01.956Z,5.73
2017-12-22T12:14:01.668Z,5.73
2017-12-22T12:15:01.667Z,5.64
2017-12-22T12:16:01.642Z,5.6
2017-12-22T12:17:01.639Z,5.63
2017-12-22T12:18:01.879Z,5.54
2017-12-22T12:19:02.145Z,5.67
2017-12-22T12:20:02.135Z,5.64
2017-12-22T12:21:01.572Z,5.64
2017-12-22T12:22:01.835Z,5.64
2017-12-22T12:23:01.563Z,5.57
2017-12-22T12:24:02.081Z,5.64
2017-12-22T12:25:01.788Z,5.64
2017-12-22T12:26:01.797Z,5.57
2017-12-22T12:27:01.761Z,5.62
2017-12-22T12:28:01.766Z,5.63
2017-12-22T12:29:01.730Z,5.52
2017-12-22T12:30:01.718Z,5.64
2017-12-22T12:31:01.726Z,5.55
2017-12-22T12:32:01.694Z,5.51
2017-12-22T12:33:01.677Z,5.44
2017-12-22T12:34:01.392Z,5.55
2017-12-22T12:35:01.379Z,5.48
2017-12-22T12:36:01.911Z,5.44
2017-12-22T12:37:01.352Z,5.39
2017-12-22T12:38:01.334Z,5.41
2017-12-22T12:39:01.322Z,5.39
2017-12-22T12:40:01.599Z,5.42
2017-12-22T12:41:01.564Z,5.34
2017-12-22T12:42:01.549Z,5.42
2017-12-22T12:43:01.537Z,5.34
2017-12-22T12:44:01.812Z,5.34
2017-12-22T12:45:01.518Z,5.44
2017-12-22T12:46:01.237Z,5.37
2017-12-22T12:47:01.210Z,5.46
2017-12-22T12:48:01.201Z,5.42
2017-12-22T12:49:01.454Z,5.39
2017-12-22T12:50:01.446Z,5.36
2017-12-22T12:51:01.435Z,5.41
2017-12-22T12:52:01.413Z,5.45
2017-12-22T12:53:01.133Z,5.55
2017-12-22T12:54:01.381Z,5.59
2017-12-22T12:55:01.094Z,5.63
2017-12-22T12:56:01.367Z,5.67
2017-12-22T12:57:01.342Z,5.67
2017-12-22T12:58:01.069Z,5.72
2017-12-22T12:59:01.352Z,5.77
2017-12-22T13:00:01.020Z,5.75
2017-12-22T13:01:01.018Z,5.78
2017-12-22T13:02:00.997Z,5.82
2017-12-22T13:03:01.252Z,5.77
2017-12-22T13:04:01.234Z,5.73
2017-12-22T13:05:01.227Z,5.85
2017-12-22T13:06:01.210Z,5.77
2017-12-22T13:07:01.196Z,5.77
2017-12-22T13:08:01.195Z,5.78
2017-12-22T13:09:00.898Z,5.8
2017-12-22T13:10:01.151Z,5.84
2017-12-22T13:11:01.137Z,5.81
2017-12-22T13:12:00.857Z,5.81
2017-12-22T13:13:01.128Z,5.85
2017-12-22T13:14:01.100Z,5.72
2017-12-22T13:15:01.085Z,5.89
2017-12-22T13:16:01.343Z,5.77
2017-12-22T13:17:00.782Z,5.8
2017-12-22T13:18:00.781Z,5.8
2017-12-22T13:19:00.760Z,5.8
2017-12-22T13:20:00.743Z,5.78